createdAt,value
2022-08-08T00:00:52.902Z,22.52
2022-08-08T00:03:01.229Z,22.92
2022-08-08T00:06:02.972Z,22.84
2022-08-08T00:08:49.517Z,22.56
2022-08-08T00:11:25.080Z,22.67
2022-08-08T00:14:16.522Z,22.42
2022-08-08T00:16:58.018Z,22.52
2022-08-08T00:19:32.319Z,22.49
2022-08-08T00:22:10.566Z,22.47
2022-08-08T00:24:46.796Z,22.50
2022-08-08T00:27:21.168Z,22.67
2022-08-08T00:29:58.157Z,22.84
2022-08-08T00:32:36.461Z,23.03
2022-08-08T00:35:34.290Z,23.22
2022-08-08T00:38:31.794Z,23.39
2022-08-08T00:42:08.377Z,23.56
2022-08-08T00:45:20.903Z,23.70
2022-08-08T00:48:29.887Z,23.64
2022-08-08T00:51:38.162Z,23.57
2022-08-08T00:54:45.692Z,23.44
2022-08-08T00:58:12.668Z,23.33
2022-08-08T01:00:51.806Z,23.16
2022-08-08T01:03:58.129Z,23.08
2022-08-08T01:07:14.187Z,23.01
2022-08-08T01:10:31.843Z,22.91
2022-08-08T01:13:43.257Z,22.84
2022-08-08T01:16:49.815Z,22.73
2022-08-08T01:20:03.888Z,22.72
2022-08-08T01:23:03.187Z,22.70
2022-08-08T01:26:13.213Z,22.72
2022-08-08T01:29:06.813Z,22.68
2022-08-08T01:32:21.229Z,22.58
2022-08-08T01:35:32.664Z,22.47
2022-08-08T01:38:28.829Z,22.40
2022-08-08T01:41:09.987Z,22.32
2022-08-08T01:43:50.879Z,22.23
2022-08-08T01:46:47.277Z,22.23
2022-08-08T01:49:45.800Z,22.23
2022-08-08T01:53:57.277Z,22.21
2022-08-08T01:56:27.005Z,22.06
2022-08-08T01:58:46.337Z,22.04
2022-08-08T02:02:00.391Z,22.15
2022-08-08T02:04:28.328Z,22.21
2022-08-08T02:07:05.011Z,22.29
2022-08-08T02:10:03.110Z,22.26
2022-08-08T02:12:44.392Z,22.22
2022-08-08T02:15:23.640Z,22.22
2022-08-08T02:18:01.984Z,22.15
2022-08-08T02:21:03.048Z,22.05
2022-08-08T02:23:38.724Z,21.95
2022-08-08T02:26:16.433Z,21.95
2022-08-08T02:29:05.662Z,21.95
2022-08-08T02:32:04.557Z,21.98
2022-08-08T02:35:07.705Z,21.98
2022-08-08T02:38:25.353Z,21.95
2022-08-08T02:41:58.780Z,21.89
2022-08-08T02:44:56.234Z,21.84
2022-08-08T02:48:06.296Z,21.79
2022-08-08T02:51:29.952Z,21.64
2022-08-08T02:59:57.029Z,21.24
2022-08-08T03:02:58.880Z,21.16
2022-08-08T03:05:53.506Z,21.11
2022-08-08T03:09:08.327Z,21.02
2022-08-08T03:12:13.873Z,20.94
2022-08-08T03:15:58.223Z,20.91
2022-08-08T03:18:08.721Z,20.86
2022-08-08T03:20:51.962Z,19.88
2022-08-08T03:23:56.262Z,20.88
2022-08-08T03:26:30.812Z,20.85
2022-08-08T03:29:16.829Z,20.87
2022-08-08T03:32:08.468Z,20.90
2022-08-08T03:34:40.410Z,20.91
2022-08-08T03:37:59.313Z,20.90
2022-08-08T03:40:04.178Z,20.87
2022-08-08T03:42:34.263Z,20.80
2022-08-08T03:46:05.639Z,20.82
2022-08-08T03:48:05.761Z,20.77
2022-08-08T03:50:44.471Z,20.71
2022-08-08T03:53:38.198Z,20.76
2022-08-08T03:56:11.783Z,20.71
2022-08-08T03:59:00.153Z,20.74
2022-08-08T04:02:13.217Z,20.63
2022-08-08T04:04:30.941Z,20.75
2022-08-08T04:07:01.855Z,20.76
2022-08-08T04:10:00.307Z,20.74
2022-08-08T04:12:28.311Z,20.66
2022-08-08T04:14:57.828Z,20.63
2022-08-08T04:17:57.837Z,20.63
2022-08-08T04:20:17.182Z,20.59
2022-08-08T04:22:51.373Z,20.58
2022-08-08T04:25:21.350Z,20.54
2022-08-08T04:28:35.170Z,20.47
2022-08-08T04:30:49.932Z,20.41
2022-08-08T04:33:23.474Z,20.37
2022-08-08T04:35:52.809Z,20.31
2022-08-08T04:38:23.234Z,20.22
2022-08-08T04:40:56.110Z,20.15
2022-08-08T04:43:32.307Z,20.11
2022-08-08T04:46:18.512Z,20.04
2022-08-08T04:48:49.360Z,19.98
2022-08-08T04:51:27.921Z,19.95
2022-08-08T04:54:38.058Z,19.99
2022-08-08T04:56:45.675Z,20.07
2022-08-08T04:59:15.821Z,20.13
2022-08-08T05:01:48.041Z,20.13
2022-08-08T05:04:18.141Z,20.13
2022-08-08T05:06:50.548Z,20.16
2022-08-08T05:09:22.233Z,20.17
2022-08-08T05:11:56.919Z,20.21
2022-08-08T05:14:29.081Z,20.21
2022-08-08T05:17:02.007Z,20.22
2022-08-08T05:20:09.375Z,20.20
2022-08-08T05:22:31.680Z,20.21
2022-08-08T05:25:01.650Z,20.20
2022-08-08T05:27:33.378Z,20.23
2022-08-08T05:30:12.422Z,20.25
2022-08-08T05:32:49.468Z,20.34
2022-08-08T05:35:24.303Z,20.39
2022-08-08T05:38:02.320Z,20.44
2022-08-08T05:40:43.029Z,20.53
2022-08-08T05:43:39.340Z,20.52
2022-08-08T05:46:21.189Z,20.75
2022-08-08T05:48:55.183Z,20.95
2022-08-08T05:51:37.510Z,21.14
2022-08-08T05:54:27.477Z,21.28
2022-08-08T05:57:11.525Z,21.58
2022-08-08T05:59:58.585Z,21.75
2022-08-08T06:03:05.460Z,21.95
2022-08-08T06:05:45.685Z,22.15
2022-08-08T06:08:33.459Z,22.36
2022-08-08T06:11:08.295Z,22.53
2022-08-08T06:13:46.955Z,22.75
2022-08-08T06:16:19.362Z,23.05
2022-08-08T06:19:13.329Z,23.52
2022-08-08T06:21:56.789Z,24.15
2022-08-08T06:24:38.318Z,24.92
2022-08-08T06:27:12.439Z,25.57
2022-08-08T06:30:00.951Z,26.46
2022-08-08T06:32:47.694Z,27.27
2022-08-08T06:36:00.491Z,27.79
2022-08-08T06:38:14.383Z,28.42
2022-08-08T06:40:53.902Z,29.13
2022-08-08T06:43:34.757Z,29.72
2022-08-08T06:46:08.689Z,30.20
2022-08-08T06:48:39.365Z,30.72
2022-08-08T06:51:15.775Z,31.21
2022-08-08T06:53:51.294Z,31.48
2022-08-08T06:56:31.929Z,31.88
2022-08-08T06:59:01.675Z,32.28
2022-08-08T07:02:21.251Z,32.65
2022-08-08T07:04:44.302Z,33.10
2022-08-08T07:07:23.910Z,33.42
2022-08-08T07:10:03.018Z,33.94
2022-08-08T07:12:43.308Z,34.25
2022-08-08T07:15:40.824Z,34.41
2022-08-08T07:18:36.064Z,34.67
2022-08-08T07:21:19.151Z,34.87
2022-08-08T07:24:03.853Z,35.02
2022-08-08T07:26:46.846Z,35.28
2022-08-08T07:30:00.533Z,35.47
2022-08-08T07:32:10.608Z,35.68
2022-08-08T07:35:00.083Z,35.86
2022-08-08T07:37:49.634Z,36.06
2022-08-08T07:40:32.484Z,36.12
2022-08-08T07:43:09.606Z,35.99
2022-08-08T07:45:51.505Z,36.11
2022-08-08T07:48:35.770Z,36.19
2022-08-08T07:51:05.284Z,36.11
2022-08-08T07:54:01.110Z,35.98
2022-08-08T07:56:42.136Z,35.98
2022-08-08T07:59:15.394Z,35.79
2022-08-08T08:02:35.535Z,35.57
2022-08-08T08:04:49.107Z,35.30
2022-08-08T08:07:22.559Z,35.14
2022-08-08T08:09:58.558Z,35.01
2022-08-08T08:12:35.701Z,34.91
2022-08-08T08:15:16.248Z,34.72
2022-08-08T08:17:48.987Z,34.59
2022-08-08T08:20:30.245Z,34.52
2022-08-08T08:23:00.703Z,34.43
2022-08-08T08:25:41.004Z,34.38
2022-08-08T08:28:21.578Z,34.16
2022-08-08T08:30:55.938Z,33.97
2022-08-08T08:33:28.394Z,33.95
2022-08-08T08:36:19.240Z,34.05
2022-08-08T08:38:49.283Z,34.09
2022-08-08T08:41:23.894Z,34.15
2022-08-08T08:44:14.366Z,34.19
2022-08-08T08:46:50.962Z,34.23
2022-08-08T08:49:31.932Z,34.14
2022-08-08T08:52:04.666Z,34.11
2022-08-08T08:54:36.299Z,34.13
2022-08-08T08:57:17.432Z,34.10
2022-08-08T08:59:59.331Z,34.01
2022-08-08T09:02:37.197Z,33.93
2022-08-08T09:05:28.879Z,33.93
2022-08-08T09:08:12.633Z,34.05
2022-08-08T09:10:48.089Z,34.23
2022-08-08T09:13:18.580Z,34.41
2022-08-08T09:16:03.759Z,34.49
2022-08-08T09:18:35.918Z,34.52
2022-08-08T09:21:56.920Z,34.58
2022-08-08T09:23:55.740Z,34.67
2022-08-08T09:26:51.380Z,34.77
2022-08-08T09:29:24.725Z,34.55
2022-08-08T09:32:04.226Z,34.85
2022-08-08T09:34:42.156Z,34.86
2022-08-08T09:37:57.454Z,34.92
2022-08-08T09:40:12.873Z,34.92
2022-08-08T09:42:51.076Z,35.00
2022-08-08T09:45:54.710Z,35.13
2022-08-08T09:48:18.366Z,35.18
2022-08-08T09:50:56.129Z,35.28
2022-08-08T09:53:53.170Z,35.37
2022-08-08T09:56:21.618Z,35.43
2022-08-08T09:58:58.565Z,35.46
2022-08-08T10:02:02.909Z,35.55
2022-08-08T10:04:38.600Z,35.65
2022-08-08T10:07:15.701Z,35.72
2022-08-08T10:09:59.647Z,35.97
2022-08-08T10:12:52.888Z,36.20
2022-08-08T10:15:25.089Z,36.40
2022-08-08T10:18:06.458Z,36.47
2022-08-08T10:20:58.215Z,36.61
2022-08-08T10:23:44.147Z,36.73
2022-08-08T10:26:29.787Z,36.82
2022-08-08T10:29:04.646Z,36.94
2022-08-08T10:31:52.547Z,37.12
2022-08-08T10:34:27.481Z,36.40
2022-08-08T10:36:59.670Z,37.23
2022-08-08T10:39:31.439Z,37.16
2022-08-08T10:42:15.462Z,37.11
2022-08-08T10:44:46.115Z,36.91
2022-08-08T10:47:21.048Z,37.15
2022-08-08T10:50:00.613Z,37.27
2022-08-08T10:52:34.297Z,35.91
2022-08-08T10:55:06.468Z,37.38
2022-08-08T10:57:50.534Z,37.37
2022-08-08T11:00:26.236Z,37.34
2022-08-08T11:02:55.630Z,37.38
2022-08-08T11:05:27.595Z,37.51
2022-08-08T11:08:38.196Z,37.57
2022-08-08T11:11:32.771Z,37.51
2022-08-08T11:13:59.989Z,37.50
2022-08-08T11:16:34.345Z,37.67
2022-08-08T11:19:05.079Z,37.79
2022-08-08T11:21:37.885Z,37.74
2022-08-08T11:24:10.203Z,37.63
2022-08-08T11:26:56.411Z,37.70
2022-08-08T11:29:41.458Z,37.71
2022-08-08T11:32:29.150Z,37.70
2022-08-08T11:35:23.553Z,37.87
2022-08-08T11:38:39.481Z,38.00
2022-08-08T11:40:47.395Z,37.94
2022-08-08T11:43:21.670Z,37.98
2022-08-08T11:46:09.960Z,38.08
2022-08-08T11:48:46.883Z,38.15
2022-08-08T11:51:39.257Z,38.23
2022-08-08T11:54:27.466Z,38.24
2022-08-08T11:56:57.859Z,38.23
2022-08-08T11:59:58.387Z,38.37
2022-08-08T12:02:33.397Z,38.43
2022-08-08T12:05:07.464Z,38.54
2022-08-08T12:07:51.085Z,38.57
2022-08-08T12:10:22.336Z,38.58
2022-08-08T12:13:01.613Z,38.65
2022-08-08T12:15:42.350Z,38.55
2022-08-08T12:18:21.046Z,38.53
2022-08-08T12:20:53.246Z,38.46
2022-08-08T12:23:43.221Z,38.60
2022-08-08T12:26:28.496Z,38.56
2022-08-08T12:29:40.864Z,38.50
2022-08-08T12:32:13.638Z,38.66
2022-08-08T12:34:52.841Z,38.69
2022-08-08T12:37:41.097Z,38.65
2022-08-08T12:40:22.493Z,38.59
2022-08-08T12:42:51.889Z,38.56
2022-08-08T12:45:57.753Z,38.71
2022-08-08T12:48:37.708Z,38.74
2022-08-08T12:51:11.237Z,38.64
2022-08-08T12:53:57.588Z,38.58
2022-08-08T12:56:34.265Z,38.57
2022-08-08T12:59:02.928Z,38.57
2022-08-08T13:01:37.499Z,38.64
2022-08-08T13:04:19.199Z,38.73
2022-08-08T13:07:04.737Z,38.73
2022-08-08T13:09:43.221Z,38.73
2022-08-08T13:12:29.737Z,38.95
2022-08-08T13:15:01.278Z,38.85
2022-08-08T13:18:09.012Z,38.85
2022-08-08T13:20:21.972Z,38.96
2022-08-08T13:22:59.313Z,39.06
2022-08-08T13:25:40.359Z,39.11
2022-08-08T13:28:09.396Z,39.18
2022-08-08T13:30:38.193Z,39.14
2022-08-08T13:33:08.137Z,39.09
2022-08-08T13:35:43.991Z,39.09
2022-08-08T13:38:19.372Z,39.08
2022-08-08T13:40:48.315Z,39.05
2022-08-08T13:43:20.937Z,39.00
2022-08-08T13:45:49.453Z,39.07
2022-08-08T13:48:25.376Z,39.01
2022-08-08T13:50:58.002Z,38.96
2022-08-08T13:53:53.317Z,38.97
2022-08-08T13:56:44.798Z,39.03
2022-08-08T13:59:39.323Z,39.07
2022-08-08T14:02:20.859Z,39.13
2022-08-08T14:05:09.585Z,39.30
2022-08-08T14:07:52.375Z,39.29
2022-08-08T14:10:33.499Z,39.12
2022-08-08T14:13:30.809Z,39.27
2022-08-08T14:16:03.614Z,39.22
2022-08-08T14:18:35.828Z,39.20
2022-08-08T14:21:22.317Z,39.19
2022-08-08T14:24:07.598Z,39.04
2022-08-08T14:26:42.498Z,38.82
2022-08-08T14:29:29.816Z,38.59
2022-08-08T14:32:10.966Z,38.47
2022-08-08T14:34:43.404Z,38.55
2022-08-08T14:37:18.083Z,38.60
2022-08-08T14:39:53.645Z,38.51
2022-08-08T14:42:30.454Z,38.66
2022-08-08T14:45:03.217Z,38.62
2022-08-08T14:47:36.450Z,38.54
2022-08-08T14:50:14.864Z,38.58
2022-08-08T14:52:57.058Z,38.53
2022-08-08T14:55:35.400Z,38.47
2022-08-08T14:58:12.047Z,38.37
2022-08-08T15:00:47.847Z,38.30
2022-08-08T15:03:17.087Z,38.26
2022-08-08T15:05:53.423Z,38.27
2022-08-08T15:08:35.712Z,38.27
2022-08-08T15:11:10.345Z,38.28
2022-08-08T15:14:00.865Z,38.28
2022-08-08T15:16:34.050Z,38.26
2022-08-08T15:19:04.656Z,38.26
2022-08-08T15:21:33.154Z,38.20
2022-08-08T15:24:03.245Z,38.14
2022-08-08T15:26:32.187Z,38.06
2022-08-08T15:29:01.024Z,37.94
2022-08-08T15:32:03.679Z,37.84
2022-08-08T15:34:31.473Z,37.77
2022-08-08T15:37:03.140Z,37.70
2022-08-08T15:39:37.502Z,37.64
2022-08-08T15:42:07.066Z,37.63
2022-08-08T15:44:40.828Z,37.57
2022-08-08T15:47:15.901Z,37.50
2022-08-08T15:49:48.394Z,37.46
2022-08-08T15:52:20.758Z,37.48
2022-08-08T15:54:52.512Z,37.45
2022-08-08T15:57:21.936Z,37.36
2022-08-08T16:00:06.177Z,37.28
2022-08-08T16:02:43.967Z,37.14
2022-08-08T16:05:19.883Z,36.98
2022-08-08T16:07:52.450Z,36.99
2022-08-08T16:13:15.025Z,36.92
2022-08-08T16:13:34.047Z,36.79
2022-08-08T16:16:03.351Z,36.45
2022-08-08T16:18:41.175Z,36.56
2022-08-08T16:21:26.379Z,36.53
2022-08-08T16:23:56.126Z,36.49
2022-08-08T16:26:34.349Z,36.57
2022-08-08T16:29:09.309Z,36.54
2022-08-08T16:31:44.766Z,36.44
2022-08-08T16:34:19.694Z,36.51
2022-08-08T16:36:50.552Z,36.47
2022-08-08T16:40:00.032Z,36.44
2022-08-08T16:42:17.941Z,36.39
2022-08-08T16:44:59.020Z,36.35
2022-08-08T16:47:31.666Z,36.35
2022-08-08T16:50:15.300Z,36.33
2022-08-08T16:54:59.749Z,36.27
2022-08-08T16:55:55.894Z,36.20
2022-08-08T16:58:25.507Z,36.15
2022-08-08T17:00:55.487Z,36.06
2022-08-08T17:03:57.912Z,36.00
2022-08-08T17:06:35.310Z,35.92
2022-08-08T17:09:04.551Z,35.84
2022-08-08T17:11:48.227Z,35.76
2022-08-08T17:14:32.992Z,35.65
2022-08-08T17:17:04.527Z,35.58
2022-08-08T17:19:41.125Z,35.29
2022-08-08T17:22:10.833Z,35.29
2022-08-08T17:24:40.829Z,35.20
2022-08-08T17:27:10.428Z,35.08
2022-08-08T17:29:43.930Z,34.96
2022-08-08T17:32:34.145Z,34.74
2022-08-08T17:35:55.955Z,34.84
2022-08-08T17:38:01.287Z,34.78
2022-08-08T17:40:32.214Z,34.74
2022-08-08T17:43:00.893Z,34.69
2022-08-08T17:45:32.879Z,34.64
2022-08-08T17:48:08.969Z,34.54
2022-08-08T17:50:43.940Z,34.45
2022-08-08T17:53:12.615Z,34.31
2022-08-08T17:56:05.411Z,34.21
2022-08-08T17:58:30.006Z,34.11
2022-08-08T18:01:00.663Z,34.00
2022-08-08T18:03:29.137Z,33.90
2022-08-08T18:06:02.720Z,33.82
2022-08-08T18:08:41.469Z,33.73
2022-08-08T18:11:15.069Z,33.70
2022-08-08T18:13:45.320Z,33.63
2022-08-08T18:16:20.769Z,32.80
2022-08-08T18:18:53.286Z,33.35
2022-08-08T18:22:00.596Z,33.22
2022-08-08T18:24:18.802Z,33.08
2022-08-08T18:26:54.464Z,33.01
2022-08-08T18:29:30.237Z,32.95
2022-08-08T18:32:05.590Z,32.88
2022-08-08T18:34:35.896Z,32.79
2022-08-08T18:37:06.509Z,32.66
2022-08-08T18:39:37.798Z,32.60
2022-08-08T18:42:13.021Z,32.43
2022-08-08T18:44:55.872Z,32.39
2022-08-08T18:47:27.999Z,32.26
2022-08-08T18:50:00.423Z,32.16
2022-08-08T18:52:34.609Z,32.02
2022-08-08T18:55:09.871Z,31.94
2022-08-08T18:57:43.213Z,31.85
2022-08-08T19:00:16.437Z,31.60
2022-08-08T19:02:55.774Z,31.66
2022-08-08T19:05:32.457Z,32.13
2022-08-08T19:08:24.773Z,31.59
2022-08-08T19:11:01.270Z,31.36
2022-08-08T19:13:52.629Z,31.21
2022-08-08T19:16:20.609Z,30.98
2022-08-08T19:19:01.863Z,30.81
2022-08-08T19:21:32.986Z,30.63
2022-08-08T19:24:05.453Z,30.46
2022-08-08T19:26:35.057Z,30.40
2022-08-08T19:29:03.532Z,30.32
2022-08-08T19:31:35.915Z,30.24
2022-08-08T19:34:36.104Z,30.07
2022-08-08T19:36:59.097Z,29.84
2022-08-08T19:39:34.815Z,29.70
2022-08-08T19:42:03.680Z,29.53
2022-08-08T19:44:45.494Z,29.42
2022-08-08T19:47:14.682Z,29.25
2022-08-08T19:50:00.120Z,29.14
2022-08-08T19:52:34.667Z,29.03
2022-08-08T19:55:06.330Z,29.00
2022-08-08T19:57:37.799Z,29.00
2022-08-08T20:00:11.267Z,28.88
2022-08-08T20:02:57.813Z,28.74
2022-08-08T20:06:15.602Z,28.78
2022-08-08T20:08:29.731Z,28.68
2022-08-08T20:11:00.112Z,28.53
2022-08-08T20:14:34.698Z,28.36
2022-08-08T20:16:17.137Z,28.19
2022-08-08T20:18:52.980Z,28.10
2022-08-08T20:21:25.368Z,27.96
2022-08-08T20:23:57.546Z,27.74
2022-08-08T20:26:33.702Z,27.66
2022-08-08T20:29:03.960Z,27.53
2022-08-08T20:32:02.616Z,27.45
2022-08-08T20:34:29.764Z,27.32
2022-08-08T20:37:03.643Z,27.15
2022-08-08T20:39:39.136Z,27.01
2022-08-08T20:42:20.419Z,26.90
2022-08-08T20:44:58.006Z,26.95
2022-08-08T20:47:26.777Z,26.91
2022-08-08T20:49:58.335Z,26.92
2022-08-08T20:52:30.253Z,26.84
2022-08-08T20:54:58.656Z,26.68
2022-08-08T20:57:27.798Z,26.48
2022-08-08T20:59:56.496Z,26.57
2022-08-08T21:02:25.625Z,26.48
2022-08-08T21:05:00.879Z,26.36
2022-08-08T21:08:00.811Z,26.23
2022-08-08T21:10:21.254Z,26.22
2022-08-08T21:12:56.429Z,26.12
2022-08-08T21:16:05.426Z,26.15
2022-08-08T21:18:14.310Z,26.15
2022-08-08T21:20:42.810Z,26.19
2022-08-08T21:23:18.968Z,26.22
2022-08-08T21:25:55.006Z,26.13
2022-08-08T21:28:33.602Z,25.95
2022-08-08T21:31:05.973Z,25.83
2022-08-08T21:33:50.725Z,25.82
2022-08-08T21:36:20.913Z,25.69
2022-08-08T21:38:58.256Z,25.61
2022-08-08T21:41:38.068Z,25.65
2022-08-08T21:44:11.529Z,25.51
2022-08-08T21:48:01.226Z,25.39
2022-08-08T21:49:30.715Z,25.41
2022-08-08T21:54:23.064Z,25.38
2022-08-08T21:55:02.031Z,25.25
2022-08-08T21:57:42.246Z,25.07
2022-08-08T22:00:14.405Z,25.10
2022-08-08T22:02:44.335Z,25.28
2022-08-08T22:05:14.823Z,25.34
2022-08-08T22:07:47.478Z,25.30
2022-08-08T22:10:31.953Z,25.22
2022-08-08T22:13:17.680Z,25.08
2022-08-08T22:15:59.699Z,24.90
2022-08-08T22:18:33.385Z,24.90
2022-08-08T22:21:10.699Z,24.68
2022-08-08T22:23:50.675Z,24.62
2022-08-08T22:26:29.116Z,24.48
2022-08-08T22:29:04.332Z,24.47
2022-08-08T22:31:35.338Z,24.43
2022-08-08T22:34:12.827Z,24.38
2022-08-08T22:36:43.350Z,24.33
2022-08-08T22:39:19.223Z,24.33
2022-08-08T22:41:49.623Z,24.14
2022-08-08T22:44:17.954Z,24.10
2022-08-08T22:46:46.333Z,24.11
2022-08-08T22:49:20.245Z,24.05
2022-08-08T22:51:48.886Z,23.98
2022-08-08T22:54:31.232Z,23.99
2022-08-08T22:57:11.736Z,24.01
2022-08-08T22:59:52.762Z,23.88
2022-08-08T23:02:28.958Z,23.64
2022-08-08T23:04:58.587Z,23.72
2022-08-08T23:07:49.205Z,23.57
2022-08-08T23:10:25.233Z,23.09
2022-08-08T23:12:56.640Z,23.38
2022-08-08T23:16:39.329Z,23.37
2022-08-08T23:18:14.318Z,23.49
2022-08-08T23:20:44.169Z,23.44
2022-08-08T23:23:13.533Z,23.30
2022-08-08T23:25:47.830Z,23.43
2022-08-08T23:28:19.286Z,23.36
2022-08-08T23:30:48.198Z,23.26
2022-08-08T23:33:35.857Z,23.16
2022-08-08T23:36:08.186Z,22.99
2022-08-08T23:38:44.216Z,22.85
2022-08-08T23:41:23.225Z,22.71
2022-08-08T23:43:56.504Z,22.61
2022-08-08T23:49:01.957Z,22.52
2022-08-08T23:49:18.722Z,22.46
2022-08-08T23:52:06.696Z,22.44
2022-08-08T23:54:42.361Z,22.42
2022-08-08T23:57:27.659Z,22.32
